createdAt,value
2022-12-20T00:00:14.261Z,3.20
2022-12-20T00:01:14.966Z,3.00
2022-12-20T00:02:15.879Z,3.00
2022-12-20T00:03:16.687Z,4.20
2022-12-20T00:04:17.335Z,2.90
2022-12-20T00:05:18.040Z,4.20
2022-12-20T00:06:18.757Z,3.00
2022-12-20T00:07:19.763Z,2.80
2022-12-20T00:08:20.442Z,2.90
2022-12-20T00:09:21.140Z,2.70
2022-12-20T00:10:21.846Z,2.90
2022-12-20T00:11:22.575Z,2.90
2022-12-20T00:12:23.265Z,2.60
2022-12-20T00:13:23.970Z,2.60
2022-12-20T00:14:24.685Z,4.40
2022-12-20T00:15:25.396Z,2.60
2022-12-20T00:16:26.093Z,3.00
2022-12-20T00:17:26.898Z,3.00
2022-12-20T00:18:27.565Z,2.70
2022-12-20T00:19:28.274Z,2.80
2022-12-20T00:20:28.973Z,2.70
2022-12-20T00:21:29.690Z,2.40
2022-12-20T00:22:30.414Z,2.40
2022-12-20T00:23:31.095Z,2.50
2022-12-20T00:24:31.799Z,4.10
2022-12-20T00:25:32.506Z,2.70
2022-12-20T00:26:33.209Z,2.50
2022-12-20T00:27:34.233Z,2.70
2022-12-20T00:28:34.451Z,3.40
2022-12-20T00:29:35.154Z,3.90
2022-12-20T00:30:35.860Z,2.80
2022-12-20T00:31:36.617Z,2.50
2022-12-20T00:32:37.295Z,2.90
2022-12-20T00:33:38.075Z,2.80
2022-12-20T00:34:38.712Z,2.30
2022-12-20T00:35:39.424Z,2.30
2022-12-20T00:36:40.126Z,2.70
2022-12-20T00:37:41.260Z,2.40
2022-12-20T00:38:41.452Z,2.80
2022-12-20T00:39:42.155Z,2.50
2022-12-20T00:40:42.856Z,2.50
2022-12-20T00:41:43.579Z,2.60
2022-12-20T00:42:44.727Z,2.40
2022-12-20T00:43:44.938Z,2.50
2022-12-20T00:44:45.647Z,2.40
2022-12-20T00:45:46.356Z,2.30
2022-12-20T00:46:47.159Z,2.50
2022-12-20T00:47:47.854Z,3.70
2022-12-20T00:48:48.507Z,2.30
2022-12-20T00:49:49.207Z,2.50
2022-12-20T00:50:49.918Z,2.60
2022-12-20T00:51:50.634Z,2.50
2022-12-20T00:52:51.760Z,2.40
2022-12-20T00:53:51.957Z,2.20
2022-12-20T00:54:52.651Z,2.40
2022-12-20T00:55:53.388Z,2.30
2022-12-20T00:56:54.089Z,2.30
2022-12-20T00:57:55.232Z,2.70
2022-12-20T00:58:55.446Z,2.50
2022-12-20T00:59:56.150Z,2.40
2022-12-20T01:00:57.419Z,2.50
2022-12-20T01:01:57.866Z,2.50
2022-12-20T01:02:58.892Z,2.20
2022-12-20T01:03:59.177Z,2.60
2022-12-20T01:04:59.872Z,2.60
2022-12-20T01:06:00.578Z,4.00
2022-12-20T01:07:01.288Z,2.30
2022-12-20T01:08:02.049Z,2.60
2022-12-20T01:09:02.714Z,2.50
2022-12-20T01:10:03.408Z,3.90
2022-12-20T01:11:04.155Z,2.50
2022-12-20T01:12:04.840Z,2.80
2022-12-20T01:13:05.743Z,2.50
2022-12-20T01:14:06.447Z,2.60
2022-12-20T01:15:07.157Z,2.40
2022-12-20T01:16:07.893Z,2.20
2022-12-20T01:17:08.582Z,3.30
2022-12-20T01:18:09.323Z,2.60
2022-12-20T01:19:10.004Z,2.50
2022-12-20T01:20:10.716Z,2.60
2022-12-20T01:21:11.445Z,4.90
2022-12-20T01:22:12.134Z,3.00
2022-12-20T01:23:13.882Z,2.40
2022-12-20T01:24:13.520Z,3.30
2022-12-20T01:25:14.224Z,5.60
2022-12-20T01:26:14.939Z,2.40
2022-12-20T01:27:15.648Z,2.70
2022-12-20T01:28:16.735Z,4.00
2022-12-20T01:29:16.958Z,2.30
2022-12-20T01:30:17.646Z,4.90
2022-12-20T01:31:18.432Z,3.10
2022-12-20T01:32:19.163Z,2.70
2022-12-20T01:33:20.259Z,2.60
2022-12-20T01:34:20.427Z,4.00
2022-12-20T01:35:21.148Z,3.00
2022-12-20T01:36:21.837Z,3.20
2022-12-20T01:37:22.543Z,2.80
2022-12-20T01:38:23.761Z,2.80
2022-12-20T01:39:23.964Z,3.00
2022-12-20T01:40:24.676Z,2.50
2022-12-20T01:41:25.409Z,2.70
2022-12-20T01:42:26.100Z,3.10
2022-12-20T01:43:26.835Z,2.60
2022-12-20T01:44:27.512Z,2.90
2022-12-20T01:45:28.346Z,2.50
2022-12-20T01:46:29.233Z,2.30
2022-12-20T01:47:29.967Z,2.90
2022-12-20T01:48:30.713Z,2.70
2022-12-20T01:49:31.373Z,2.60
2022-12-20T01:50:32.077Z,9.10
2022-12-20T01:51:32.781Z,5.50
2022-12-20T01:52:33.485Z,3.40
2022-12-20T01:53:34.228Z,2.80
2022-12-20T01:54:34.905Z,2.90
2022-12-20T01:55:35.610Z,3.10
2022-12-20T01:56:36.316Z,2.70
2022-12-20T01:57:37.018Z,2.80
2022-12-20T01:58:37.745Z,2.90
2022-12-20T01:59:38.446Z,2.90
2022-12-20T02:00:39.151Z,2.90
2022-12-20T02:01:40.065Z,2.70
2022-12-20T02:02:40.920Z,2.50
2022-12-20T02:03:41.715Z,2.70
2022-12-20T02:04:42.401Z,2.50
2022-12-20T02:05:43.119Z,2.90
2022-12-20T02:06:43.812Z,2.80
2022-12-20T02:07:44.518Z,2.90
2022-12-20T02:08:45.258Z,2.50
2022-12-20T02:09:45.947Z,2.30
2022-12-20T02:10:46.652Z,5.10
2022-12-20T02:11:47.355Z,6.20
2022-12-20T02:12:48.067Z,2.90
2022-12-20T02:13:48.777Z,3.90
2022-12-20T02:14:49.476Z,3.70
2022-12-20T02:15:50.184Z,2.70
2022-12-20T02:16:50.972Z,2.70
2022-12-20T02:17:51.759Z,2.70
2022-12-20T02:18:52.789Z,3.00
2022-12-20T02:19:53.428Z,2.80
2022-12-20T02:20:54.124Z,3.70
2022-12-20T02:21:54.834Z,2.60
2022-12-20T02:22:55.541Z,2.80
2022-12-20T02:23:56.289Z,2.70
2022-12-20T02:24:56.961Z,2.80
2022-12-20T02:25:57.665Z,3.00
2022-12-20T02:26:58.371Z,2.90
2022-12-20T02:27:59.088Z,2.60
2022-12-20T02:29:00.246Z,2.60
2022-12-20T02:30:00.452Z,2.60
2022-12-20T02:31:01.147Z,2.40
2022-12-20T02:32:01.897Z,2.80
2022-12-20T02:33:02.619Z,2.80
2022-12-20T02:34:03.776Z,2.50
2022-12-20T02:35:03.946Z,2.80
2022-12-20T02:36:04.659Z,2.70
2022-12-20T02:37:05.358Z,3.50
2022-12-20T02:38:06.062Z,4.20
2022-12-20T02:39:07.276Z,2.80
2022-12-20T02:40:07.447Z,6.40
2022-12-20T02:41:08.181Z,4.70
2022-12-20T02:42:08.895Z,2.90
2022-12-20T02:43:09.598Z,2.70
2022-12-20T02:44:10.310Z,3.60
2022-12-20T02:45:11.018Z,2.90
2022-12-20T02:46:11.805Z,2.70
2022-12-20T02:47:12.513Z,2.80
2022-12-20T02:48:13.223Z,3.50
2022-12-20T02:49:14.027Z,3.00
2022-12-20T02:50:14.659Z,2.60
2022-12-20T02:51:15.365Z,8.10
2022-12-20T02:52:16.086Z,3.00
2022-12-20T02:53:16.773Z,3.20
2022-12-20T02:54:17.815Z,2.70
2022-12-20T02:55:18.447Z,2.80
2022-12-20T02:56:19.164Z,2.90
2022-12-20T02:57:19.869Z,3.20
2022-12-20T02:58:20.571Z,3.00
2022-12-20T02:59:21.287Z,3.00
2022-12-20T03:00:21.991Z,3.20
2022-12-20T03:01:22.852Z,3.00
2022-12-20T03:02:23.819Z,3.20
2022-12-20T03:03:24.275Z,4.10
2022-12-20T03:04:25.058Z,3.00
2022-12-20T03:05:25.726Z,2.90
2022-12-20T03:06:26.436Z,2.60
2022-12-20T03:07:27.140Z,3.00
2022-12-20T03:08:27.877Z,2.90
2022-12-20T03:09:28.586Z,3.10
2022-12-20T03:10:29.259Z,2.90
2022-12-20T03:11:29.974Z,3.10
2022-12-20T03:12:30.681Z,2.90
2022-12-20T03:13:31.393Z,3.10
2022-12-20T03:14:32.248Z,3.60
2022-12-20T03:15:32.954Z,5.90
2022-12-20T03:16:33.698Z,3.00
2022-12-20T03:17:34.379Z,2.90
2022-12-20T03:18:35.082Z,2.70
2022-12-20T03:19:35.827Z,2.80
2022-12-20T03:20:36.490Z,2.80
2022-12-20T03:21:37.193Z,3.10
2022-12-20T03:22:37.893Z,2.70
2022-12-20T03:23:38.603Z,3.70
2022-12-20T03:24:39.336Z,3.00
2022-12-20T03:25:40.021Z,3.10
2022-12-20T03:26:40.744Z,3.90
2022-12-20T03:27:41.444Z,3.00
2022-12-20T03:28:42.180Z,3.50
2022-12-20T03:29:43.248Z,2.90
2022-12-20T03:30:43.478Z,4.40
2022-12-20T03:31:44.158Z,2.90
2022-12-20T03:32:44.862Z,2.80
2022-12-20T03:33:45.572Z,4.00
2022-12-20T03:34:46.768Z,3.50
2022-12-20T03:35:46.905Z,3.00
2022-12-20T03:36:47.614Z,4.40
2022-12-20T03:37:48.321Z,3.60
2022-12-20T03:38:49.030Z,3.70
2022-12-20T03:39:49.773Z,5.80
2022-12-20T03:40:50.460Z,6.90
2022-12-20T03:41:51.171Z,3.70
2022-12-20T03:42:51.926Z,6.30
2022-12-20T03:43:52.639Z,4.00
2022-12-20T03:44:53.846Z,5.40
2022-12-20T03:45:54.040Z,4.40
2022-12-20T03:46:54.728Z,5.10
2022-12-20T03:47:55.439Z,5.10
2022-12-20T03:48:56.157Z,3.60
2022-12-20T03:49:57.275Z,5.60
2022-12-20T03:50:57.471Z,3.60
2022-12-20T03:51:58.181Z,3.80
2022-12-20T03:52:58.903Z,4.00
2022-12-20T03:53:59.609Z,5.90
2022-12-20T03:55:00.350Z,3.60
2022-12-20T03:56:01.049Z,3.70
2022-12-20T03:57:01.742Z,4.70
2022-12-20T03:58:02.452Z,4.90
2022-12-20T03:59:03.155Z,6.70
2022-12-20T04:00:04.261Z,12.70
2022-12-20T04:01:04.546Z,5.00
2022-12-20T04:02:05.359Z,4.90
2022-12-20T04:03:06.188Z,4.30
2022-12-20T04:04:06.878Z,6.00
2022-12-20T04:05:07.770Z,4.30
2022-12-20T04:06:08.470Z,5.20
2022-12-20T04:07:09.178Z,11.70
2022-12-20T04:08:09.883Z,7.80
2022-12-20T04:09:10.588Z,6.30
2022-12-20T04:10:11.787Z,7.00
2022-12-20T04:11:11.968Z,6.80
2022-12-20T04:12:12.688Z,5.00
2022-12-20T04:13:13.383Z,6.00
2022-12-20T04:14:14.117Z,4.70
2022-12-20T04:15:14.808Z,6.70
2022-12-20T04:16:15.567Z,4.60
2022-12-20T04:17:16.225Z,4.30
2022-12-20T04:18:16.937Z,6.10
2022-12-20T04:19:17.650Z,6.60
2022-12-20T04:20:18.402Z,6.40
2022-12-20T04:21:19.099Z,4.10
2022-12-20T04:22:19.797Z,4.40
2022-12-20T04:23:20.513Z,3.80
2022-12-20T04:24:21.231Z,4.10
2022-12-20T04:25:21.966Z,4.20
2022-12-20T04:26:22.654Z,3.80
2022-12-20T04:27:23.360Z,4.30
2022-12-20T04:28:24.081Z,4.20
2022-12-20T04:29:24.803Z,4.90
2022-12-20T04:30:25.540Z,4.20
2022-12-20T04:31:26.268Z,3.90
2022-12-20T04:32:26.930Z,3.70
2022-12-20T04:33:27.623Z,4.10
2022-12-20T04:34:28.323Z,5.80
2022-12-20T04:35:29.054Z,6.30
2022-12-20T04:36:29.738Z,16.50
2022-12-20T04:37:30.457Z,8.20
2022-12-20T04:38:31.159Z,15.50
2022-12-20T04:39:31.852Z,5.90
2022-12-20T04:40:32.577Z,5.70
2022-12-20T04:41:33.273Z,17.60
2022-12-20T04:42:33.998Z,10.30
2022-12-20T04:43:34.691Z,5.40
2022-12-20T04:44:35.389Z,8.10
2022-12-20T04:45:36.112Z,7.10
2022-12-20T04:46:36.889Z,7.70
2022-12-20T04:47:37.557Z,9.20
2022-12-20T04:48:56.517Z,5.20
2022-12-20T04:49:39.856Z,4.90
2022-12-20T04:50:39.597Z,6.60
2022-12-20T04:51:40.266Z,5.20
2022-12-20T04:52:47.402Z,5.10
2022-12-20T04:53:42.573Z,5.40
2022-12-20T04:54:42.280Z,10.40
2022-12-20T04:55:43.053Z,7.50
2022-12-20T04:56:43.701Z,11.20
2022-12-20T04:57:44.409Z,8.80
2022-12-20T04:58:45.132Z,5.30
2022-12-20T04:59:45.820Z,9.20
2022-12-20T05:00:46.775Z,10.00
2022-12-20T05:01:47.578Z,8.90
2022-12-20T05:02:48.487Z,6.70
2022-12-20T05:03:49.345Z,7.00
2022-12-20T05:04:50.137Z,6.90
2022-12-20T05:05:50.871Z,5.80
2022-12-20T05:06:51.563Z,9.10
2022-12-20T05:07:52.274Z,5.20
2022-12-20T05:08:52.988Z,22.00
2022-12-20T05:09:53.702Z,55.90
2022-12-20T05:10:54.782Z,19.60
2022-12-20T05:11:54.971Z,13.80
2022-12-20T05:12:55.682Z,13.00
2022-12-20T05:13:56.387Z,11.00
2022-12-20T05:14:57.148Z,14.60
2022-12-20T05:15:58.303Z,10.20
2022-12-20T05:16:58.492Z,9.80
2022-12-20T05:17:59.201Z,10.40
2022-12-20T05:18:59.909Z,11.80
2022-12-20T05:20:00.617Z,13.70
2022-12-20T05:21:01.838Z,15.20
2022-12-20T05:22:01.997Z,8.20
2022-12-20T05:23:02.697Z,15.90
2022-12-20T05:24:03.420Z,9.20
2022-12-20T05:25:04.108Z,18.10
2022-12-20T05:26:04.849Z,15.30
2022-12-20T05:27:05.530Z,15.70
2022-12-20T05:28:06.239Z,8.10
2022-12-20T05:29:06.949Z,9.50
2022-12-20T05:30:07.651Z,9.80
2022-12-20T05:31:08.831Z,13.70
2022-12-20T05:32:09.016Z,15.40
2022-12-20T05:33:09.740Z,14.30
2022-12-20T05:34:10.455Z,11.30
2022-12-20T05:35:11.135Z,22.60
2022-12-20T05:36:12.289Z,13.20
2022-12-20T05:37:12.476Z,20.30
2022-12-20T05:38:13.171Z,22.80
2022-12-20T05:39:13.922Z,12.50
2022-12-20T05:40:14.620Z,16.60
2022-12-20T05:41:15.791Z,14.50
2022-12-20T05:42:15.975Z,17.10
2022-12-20T05:43:16.683Z,16.00
2022-12-20T05:44:17.405Z,16.90
2022-12-20T05:45:18.103Z,20.10
2022-12-20T05:46:18.888Z,19.60
2022-12-20T05:47:19.553Z,12.60
2022-12-20T05:48:20.273Z,10.20
2022-12-20T05:49:20.976Z,22.30
2022-12-20T05:50:21.680Z,12.60
2022-12-20T05:51:22.790Z,17.40
2022-12-20T05:52:22.965Z,13.40
2022-12-20T05:53:23.670Z,12.40
2022-12-20T05:54:24.391Z,17.90
2022-12-20T05:55:25.085Z,11.50
2022-12-20T05:56:25.790Z,12.20
2022-12-20T05:57:26.477Z,7.90
2022-12-20T05:58:27.187Z,15.70
2022-12-20T05:59:27.896Z,10.50
2022-12-20T06:00:28.635Z,9.10
2022-12-20T06:01:29.805Z,15.60
2022-12-20T06:02:30.233Z,17.10
2022-12-20T06:03:30.620Z,9.70
2022-12-20T06:04:31.303Z,13.90
2022-12-20T06:05:32.030Z,12.60
2022-12-20T06:06:32.780Z,11.20
2022-12-20T06:07:33.417Z,16.40
2022-12-20T06:08:34.127Z,10.50
2022-12-20T06:09:34.831Z,12.80
2022-12-20T06:10:35.575Z,10.70
2022-12-20T06:11:36.267Z,10.00
2022-12-20T06:12:36.965Z,9.60
2022-12-20T06:13:37.665Z,11.70
2022-12-20T06:14:38.389Z,9.40
2022-12-20T06:15:39.097Z,7.70
2022-12-20T06:16:39.892Z,8.90
2022-12-20T06:17:40.603Z,7.80
2022-12-20T06:18:41.306Z,15.80
2022-12-20T06:19:42.025Z,8.90
2022-12-20T06:20:42.734Z,10.80
2022-12-20T06:21:43.812Z,8.50
2022-12-20T06:22:43.983Z,12.50
2022-12-20T06:23:44.697Z,7.70
2022-12-20T06:24:48.517Z,12.80
2022-12-20T06:25:46.312Z,7.90
2022-12-20T06:26:47.291Z,9.00
2022-12-20T06:27:47.996Z,7.30
2022-12-20T06:28:48.687Z,7.40
2022-12-20T06:29:49.434Z,8.80
2022-12-20T06:30:50.109Z,13.30
2022-12-20T06:31:50.861Z,10.00
2022-12-20T06:32:51.527Z,7.80
2022-12-20T06:33:52.235Z,6.50
2022-12-20T06:34:52.943Z,11.30
2022-12-20T06:35:53.644Z,7.70
2022-12-20T06:36:54.791Z,6.90
2022-12-20T06:37:54.947Z,6.70
2022-12-20T06:38:55.654Z,7.80
2022-12-20T06:39:56.403Z,6.50
2022-12-20T06:40:57.107Z,6.20
2022-12-20T06:41:58.290Z,8.20
2022-12-20T06:42:58.481Z,7.40
2022-12-20T06:43:59.191Z,7.80
2022-12-20T06:44:59.898Z,6.20
2022-12-20T06:46:00.706Z,9.60
2022-12-20T06:47:01.782Z,11.00
2022-12-20T06:48:01.992Z,6.40
2022-12-20T06:49:02.758Z,6.00
2022-12-20T06:50:03.482Z,7.40
2022-12-20T06:51:04.176Z,5.70
2022-12-20T06:52:04.985Z,8.80
2022-12-20T06:53:05.653Z,7.40
2022-12-20T06:54:06.341Z,5.40
2022-12-20T06:55:07.023Z,5.30
2022-12-20T06:56:07.765Z,11.70
2022-12-20T06:57:08.799Z,5.80
2022-12-20T06:58:08.993Z,4.90
2022-12-20T06:59:09.692Z,4.60
2022-12-20T07:00:10.402Z,5.10
2022-12-20T07:01:11.215Z,5.30
2022-12-20T07:02:12.206Z,7.40
2022-12-20T07:03:12.646Z,5.40
2022-12-20T07:04:13.367Z,7.40
2022-12-20T07:05:14.085Z,7.90
2022-12-20T07:06:14.784Z,7.50
2022-12-20T07:07:15.793Z,5.20
2022-12-20T07:08:16.441Z,4.60
2022-12-20T07:09:17.173Z,5.70
2022-12-20T07:10:17.878Z,9.20
2022-12-20T07:11:18.599Z,6.50
2022-12-20T07:12:19.820Z,4.50
2022-12-20T07:13:19.988Z,5.90
2022-12-20T07:14:20.701Z,5.80
2022-12-20T07:15:21.421Z,7.50
2022-12-20T07:16:22.186Z,4.40
2022-12-20T07:17:22.857Z,4.90
2022-12-20T07:18:23.569Z,4.00
2022-12-20T07:19:24.102Z,5.80
2022-12-20T07:20:25.014Z,6.20
2022-12-20T07:21:26.048Z,5.50
2022-12-20T07:22:26.308Z,4.20
2022-12-20T07:23:26.988Z,3.60
2022-12-20T07:24:27.694Z,3.70
2022-12-20T07:25:28.404Z,4.90
2022-12-20T07:26:29.166Z,3.90
2022-12-20T07:27:29.890Z,7.30
2022-12-20T07:28:30.575Z,3.40
2022-12-20T07:29:31.286Z,4.30
2022-12-20T07:30:31.987Z,3.40
2022-12-20T07:31:32.653Z,3.60
2022-12-20T07:32:33.365Z,3.40
2022-12-20T07:33:34.064Z,3.40
2022-12-20T07:34:34.753Z,4.10
2022-12-20T07:35:35.474Z,4.80
2022-12-20T07:36:36.164Z,3.50
2022-12-20T07:37:36.700Z,3.70
2022-12-20T07:38:37.341Z,4.40
2022-12-20T07:39:38.062Z,3.80
2022-12-20T07:40:38.772Z,3.40
2022-12-20T07:41:39.478Z,5.10
2022-12-20T07:42:46.236Z,3.40
2022-12-20T07:43:41.801Z,3.80
2022-12-20T07:44:41.504Z,3.50
2022-12-20T07:45:42.310Z,3.60
2022-12-20T07:46:43.051Z,4.90
2022-12-20T07:47:43.961Z,3.80
2022-12-20T07:48:44.754Z,3.50
2022-12-20T07:49:45.438Z,6.80
2022-12-20T07:50:46.153Z,4.40
2022-12-20T07:51:46.887Z,5.10
2022-12-20T07:52:47.814Z,3.80
2022-12-20T07:53:48.470Z,3.50
2022-12-20T07:54:49.169Z,6.10
2022-12-20T07:55:49.877Z,3.40
2022-12-20T07:56:50.586Z,4.20
2022-12-20T07:57:51.844Z,3.90
2022-12-20T07:58:52.044Z,3.40
2022-12-20T07:59:52.724Z,4.40
2022-12-20T08:00:53.511Z,3.20
2022-12-20T08:01:57.113Z,3.40
2022-12-20T08:02:56.481Z,3.10
2022-12-20T08:03:55.434Z,4.50
2022-12-20T08:04:56.175Z,4.50
2022-12-20T08:05:56.872Z,4.60
2022-12-20T08:06:57.614Z,3.70
2022-12-20T08:07:59.657Z,3.00
2022-12-20T08:08:59.016Z,3.30
2022-12-20T08:09:59.725Z,3.10
2022-12-20T08:11:00.439Z,3.50
2022-12-20T08:12:01.152Z,4.10
2022-12-20T08:13:02.313Z,12.50
2022-12-20T08:14:02.518Z,6.30
2022-12-20T08:15:03.213Z,6.30
2022-12-20T08:16:03.918Z,4.80
2022-12-20T08:17:04.712Z,4.70
2022-12-20T08:18:05.797Z,3.10
2022-12-20T08:19:05.991Z,3.50
2022-12-20T08:20:06.708Z,3.20
2022-12-20T08:21:07.407Z,7.10
2022-12-20T08:22:08.114Z,3.10
2022-12-20T08:23:09.325Z,3.70
2022-12-20T08:24:09.517Z,4.20
2022-12-20T08:25:10.220Z,5.60
2022-12-20T08:26:10.947Z,4.80
2022-12-20T08:27:11.654Z,3.20
2022-12-20T08:28:12.818Z,2.90
2022-12-20T08:29:12.993Z,3.60
2022-12-20T08:30:13.707Z,2.80
2022-12-20T08:31:14.531Z,4.00
2022-12-20T08:32:15.247Z,3.40
2022-12-20T08:33:16.293Z,3.40
2022-12-20T08:34:16.502Z,3.60
2022-12-20T08:35:17.210Z,3.10
2022-12-20T08:36:17.932Z,3.90
2022-12-20T08:37:18.642Z,3.00
2022-12-20T08:38:19.828Z,3.00
2022-12-20T08:39:19.985Z,3.40
2022-12-20T08:40:20.702Z,3.90
2022-12-20T08:41:21.409Z,3.00
2022-12-20T08:42:22.133Z,3.20
2022-12-20T08:43:23.314Z,2.70
2022-12-20T08:44:23.503Z,2.80
2022-12-20T08:45:24.224Z,2.90
2022-12-20T08:46:25.052Z,2.90
2022-12-20T08:47:25.725Z,2.60
2022-12-20T08:48:26.797Z,2.50
2022-12-20T08:49:27.028Z,2.60
2022-12-20T08:50:27.751Z,2.70
2022-12-20T08:51:28.463Z,2.70
2022-12-20T08:52:29.150Z,2.40
2022-12-20T08:53:29.866Z,2.70
2022-12-20T08:54:30.570Z,5.60
2022-12-20T08:55:31.269Z,2.40
2022-12-20T08:56:31.994Z,5.10
2022-12-20T08:57:32.692Z,4.10
2022-12-20T08:58:33.813Z,2.40
2022-12-20T08:59:33.992Z,2.70
2022-12-20T09:00:34.709Z,2.40
2022-12-20T09:01:35.592Z,3.70
2022-12-20T09:02:36.570Z,4.30
2022-12-20T09:03:37.013Z,3.00
2022-12-20T09:04:37.758Z,2.70
2022-12-20T09:05:38.460Z,2.90
2022-12-20T09:06:39.160Z,2.40
2022-12-20T09:07:39.873Z,2.70
2022-12-20T09:08:40.825Z,2.20
2022-12-20T09:09:41.504Z,2.80
2022-12-20T09:10:42.212Z,3.40
2022-12-20T09:11:43.091Z,2.20
2022-12-20T09:12:43.827Z,3.00
2022-12-20T09:13:44.868Z,2.30
2022-12-20T09:14:45.161Z,2.50
2022-12-20T09:15:45.896Z,2.30
2022-12-20T09:16:46.645Z,2.80
2022-12-20T09:17:47.434Z,2.20
2022-12-20T09:18:48.302Z,2.30
2022-12-20T09:19:49.021Z,2.90
2022-12-20T09:20:49.764Z,1.90
2022-12-20T09:21:50.461Z,2.40
2022-12-20T09:22:51.172Z,2.30
2022-12-20T09:23:52.882Z,4.00
2022-12-20T09:24:52.681Z,2.10
2022-12-20T09:25:54.117Z,3.60
2022-12-20T09:26:54.362Z,3.50
2022-12-20T09:27:55.115Z,2.40
2022-12-20T09:28:56.317Z,2.70
2022-12-20T09:29:56.498Z,2.30
2022-12-20T09:30:57.227Z,3.00
2022-12-20T09:31:57.918Z,2.10
2022-12-20T09:32:58.625Z,2.40
2022-12-20T09:34:00.299Z,3.20
2022-12-20T09:35:00.014Z,2.60
2022-12-20T09:36:00.718Z,3.80
2022-12-20T09:37:01.454Z,2.30
2022-12-20T09:38:02.138Z,2.50
2022-12-20T09:39:03.323Z,2.70
2022-12-20T09:40:03.492Z,3.30
2022-12-20T09:41:04.230Z,2.60
2022-12-20T09:42:04.959Z,2.20
2022-12-20T09:43:05.678Z,2.70
2022-12-20T09:44:06.813Z,2.90
2022-12-20T09:45:07.035Z,4.60
2022-12-20T09:46:07.774Z,2.70
2022-12-20T09:47:11.127Z,2.50
2022-12-20T09:48:08.980Z,2.20
2022-12-20T09:49:09.799Z,2.30
2022-12-20T09:50:10.512Z,2.70
2022-12-20T09:51:11.220Z,4.40
2022-12-20T09:52:11.933Z,3.70
2022-12-20T09:53:18.114Z,2.90
2022-12-20T09:54:14.328Z,3.30
2022-12-20T09:55:13.992Z,2.60
2022-12-20T09:56:14.705Z,2.30
2022-12-20T09:57:15.416Z,2.40
2022-12-20T09:58:16.123Z,2.70
2022-12-20T09:59:16.866Z,2.20
2022-12-20T10:00:17.557Z,2.30
2022-12-20T10:01:24.376Z,2.20
2022-12-20T10:02:54.415Z,3.70
2022-12-20T10:03:20.712Z,2.30
2022-12-20T10:04:20.585Z,2.40
2022-12-20T10:05:21.004Z,2.10
2022-12-20T10:06:21.797Z,2.40
2022-12-20T10:07:22.796Z,2.10
2022-12-20T10:08:22.998Z,2.40
2022-12-20T10:09:23.792Z,5.00
2022-12-20T10:10:24.431Z,2.90
2022-12-20T10:11:25.141Z,2.40
2022-12-20T10:12:25.844Z,2.20
2022-12-20T10:13:26.555Z,2.20
2022-12-20T10:14:27.335Z,2.10
2022-12-20T10:15:28.006Z,2.90
2022-12-20T10:16:28.814Z,3.10
2022-12-20T10:17:32.535Z,2.80
2022-12-20T10:18:30.046Z,2.00
2022-12-20T10:19:30.827Z,1.90
2022-12-20T10:20:31.528Z,2.30
2022-12-20T10:21:32.235Z,2.20
2022-12-20T10:22:32.931Z,2.20
2022-12-20T10:23:33.852Z,2.30
2022-12-20T10:24:34.911Z,2.20
2022-12-20T10:25:35.075Z,2.00
2022-12-20T10:26:35.778Z,2.00
2022-12-20T10:27:36.520Z,2.00
2022-12-20T10:28:37.240Z,2.00
2022-12-20T10:29:38.320Z,7.20
2022-12-20T10:30:38.548Z,2.50
2022-12-20T10:31:39.303Z,1.90
2022-12-20T10:32:40.046Z,2.20
2022-12-20T10:33:40.747Z,2.00
2022-12-20T10:34:46.685Z,2.00
2022-12-20T10:35:43.069Z,2.10
2022-12-20T10:36:42.807Z,2.50
2022-12-20T10:38:06.064Z,2.70
2022-12-20T10:38:45.102Z,5.90
2022-12-20T10:39:44.823Z,2.60
2022-12-20T10:41:47.100Z,2.10
2022-12-20T10:42:46.814Z,2.60
2022-12-20T10:43:47.523Z,2.30
2022-12-20T10:44:48.325Z,2.30
2022-12-20T10:45:49.005Z,3.70
2022-12-20T10:46:49.772Z,4.50
2022-12-20T10:47:50.483Z,2.10
2022-12-20T10:48:51.202Z,2.70
2022-12-20T10:49:52.309Z,2.80
2022-12-20T10:50:52.787Z,2.50
2022-12-20T10:51:53.018Z,2.30
2022-12-20T10:52:53.747Z,2.00
2022-12-20T10:53:54.451Z,2.30
2022-12-20T10:54:55.193Z,3.70
2022-12-20T10:55:55.845Z,2.10
2022-12-20T10:56:56.587Z,4.60
2022-12-20T10:57:57.258Z,2.10
2022-12-20T10:58:57.964Z,2.00
2022-12-20T10:59:58.705Z,2.20
2022-12-20T11:00:59.384Z,2.20
2022-12-20T11:02:00.366Z,3.10
2022-12-20T11:03:00.860Z,4.30
2022-12-20T11:04:01.264Z,2.30
2022-12-20T11:05:02.303Z,2.20
2022-12-20T11:06:02.510Z,2.30
2022-12-20T11:07:03.213Z,2.00
2022-12-20T11:09:05.520Z,2.00
2022-12-20T11:10:05.322Z,1.90
2022-12-20T11:11:06.009Z,2.20
2022-12-20T11:12:06.771Z,2.60
2022-12-20T11:13:07.512Z,2.00
2022-12-20T11:14:08.210Z,2.80
2022-12-20T11:15:09.346Z,3.90
2022-12-20T11:16:09.566Z,4.20
2022-12-20T11:17:10.278Z,2.00
2022-12-20T11:18:10.992Z,2.00
2022-12-20T11:19:11.711Z,2.70
2022-12-20T11:20:12.443Z,3.10
2022-12-20T11:21:17.137Z,2.20
2022-12-20T11:22:14.763Z,2.10
2022-12-20T11:23:14.468Z,2.50
2022-12-20T11:24:15.188Z,2.00
2022-12-20T11:25:16.950Z,2.20
2022-12-20T11:26:16.591Z,5.20
2022-12-20T11:27:17.323Z,1.80
2022-12-20T11:28:18.003Z,2.20
2022-12-20T11:29:18.717Z,2.10
2022-12-20T11:30:20.014Z,2.00
2022-12-20T11:31:20.316Z,2.10
2022-12-20T11:32:21.023Z,2.00
2022-12-20T11:33:21.796Z,2.10
2022-12-20T11:34:22.503Z,2.90
2022-12-20T11:35:23.316Z,2.00
2022-12-20T11:36:24.012Z,2.00
2022-12-20T11:37:24.720Z,4.00
2022-12-20T11:38:25.440Z,3.00
2022-12-20T11:39:26.161Z,2.30
2022-12-20T11:40:27.366Z,2.70
2022-12-20T11:41:27.515Z,2.10
2022-12-20T11:42:28.218Z,3.60
2022-12-20T11:43:29.167Z,2.60
2022-12-20T11:44:29.882Z,2.90
2022-12-20T11:45:30.614Z,1.90
2022-12-20T11:46:31.398Z,1.80
2022-12-20T11:47:32.082Z,2.40
2022-12-20T11:48:32.805Z,2.00
2022-12-20T11:49:33.500Z,2.20
2022-12-20T11:50:34.315Z,2.20
2022-12-20T11:51:35.055Z,2.10
2022-12-20T11:52:35.737Z,5.60
2022-12-20T11:53:36.460Z,2.00
2022-12-20T11:54:37.150Z,3.30
2022-12-20T11:55:37.907Z,2.50
2022-12-20T11:56:43.794Z,2.20
2022-12-20T11:58:02.151Z,3.90
2022-12-20T11:58:40.807Z,2.00
2022-12-20T11:59:40.517Z,2.40
2022-12-20T12:00:41.351Z,2.10
2022-12-20T12:01:42.139Z,2.20
2022-12-20T12:02:42.908Z,4.10
2022-12-20T12:03:43.669Z,3.40
2022-12-20T12:04:44.525Z,2.10
2022-12-20T12:05:45.367Z,2.10
2022-12-20T12:06:46.067Z,2.20
2022-12-20T12:07:46.782Z,3.60
2022-12-20T12:08:47.489Z,3.10
2022-12-20T12:09:48.206Z,4.80
2022-12-20T12:10:49.341Z,3.30
2022-12-20T12:12:06.548Z,3.50
2022-12-20T12:12:51.128Z,2.80
2022-12-20T12:13:50.836Z,2.00
2022-12-20T12:14:51.566Z,2.60
2022-12-20T12:15:52.662Z,3.20
2022-12-20T12:16:53.104Z,2.50
2022-12-20T12:17:53.770Z,2.00
2022-12-20T12:18:54.567Z,3.50
2022-12-20T12:19:55.277Z,2.30
2022-12-20T12:20:56.541Z,2.70
2022-12-20T12:21:56.752Z,2.40
2022-12-20T12:22:57.657Z,3.20
2022-12-20T12:23:58.541Z,4.50
2022-12-20T12:24:59.259Z,3.20
2022-12-20T12:26:00.357Z,2.30
2022-12-20T12:27:00.545Z,2.20
2022-12-20T12:28:01.248Z,2.70
2022-12-20T12:29:01.995Z,2.20
2022-12-20T12:30:02.723Z,2.40
2022-12-20T12:31:03.852Z,3.00
2022-12-20T12:32:04.229Z,1.90
2022-12-20T12:33:07.500Z,2.30
2022-12-20T12:34:05.938Z,3.10
2022-12-20T12:35:06.670Z,2.40
2022-12-20T12:36:07.365Z,3.20
2022-12-20T12:37:08.078Z,2.30
2022-12-20T12:38:08.817Z,2.10
2022-12-20T12:39:09.511Z,2.40
2022-12-20T12:40:10.210Z,2.40
2022-12-20T12:41:11.342Z,2.30
2022-12-20T12:42:11.525Z,4.90
2022-12-20T12:43:12.237Z,5.40
2022-12-20T12:44:12.947Z,2.00
2022-12-20T12:45:13.669Z,2.90
2022-12-20T12:46:15.008Z,2.10
2022-12-20T12:47:15.249Z,2.00
2022-12-20T12:48:15.945Z,1.90
2022-12-20T12:49:16.663Z,2.10
2022-12-20T12:50:17.379Z,2.60
2022-12-20T12:51:18.326Z,2.00
2022-12-20T12:52:19.040Z,2.00
2022-12-20T12:53:19.761Z,2.50
2022-12-20T12:54:20.480Z,2.90
2022-12-20T12:55:21.288Z,2.10
2022-12-20T12:56:42.474Z,2.40
2022-12-20T12:57:23.942Z,2.30
2022-12-20T12:58:23.771Z,5.10
2022-12-20T12:59:24.472Z,13.10
2022-12-20T13:00:25.174Z,7.20
2022-12-20T13:01:26.131Z,3.70
2022-12-20T13:02:27.179Z,12.20
2022-12-20T13:03:27.514Z,3.10
2022-12-20T13:04:28.166Z,3.50
2022-12-20T13:05:28.923Z,5.80
2022-12-20T13:06:29.838Z,5.00
2022-12-20T13:07:31.398Z,3.00
2022-12-20T13:08:31.069Z,3.00
2022-12-20T13:09:31.778Z,4.50
2022-12-20T13:10:32.487Z,3.10
2022-12-20T13:11:33.385Z,4.20
2022-12-20T13:12:34.106Z,3.20
2022-12-20T13:13:34.778Z,3.90
2022-12-20T13:14:35.497Z,4.20
2022-12-20T13:15:36.309Z,3.10
2022-12-20T13:17:10.220Z,4.10
2022-12-20T13:17:38.991Z,3.20
2022-12-20T13:18:38.737Z,2.90
2022-12-20T13:19:39.537Z,3.30
2022-12-20T13:20:40.843Z,3.40
2022-12-20T13:21:41.416Z,7.50
2022-12-20T13:22:41.623Z,4.90
2022-12-20T13:23:42.412Z,3.10
2022-12-20T13:24:43.065Z,3.00
2022-12-20T13:25:43.773Z,2.80
2022-12-20T13:26:44.464Z,2.90